Time;durP1;ratioP1;P1;durP2;ratioP2;P2;SDS_P1;SDS_P2;PMS_P1;PMS_P2;Temp;Humidity;BMP_temperature;BMP_pressure;BME280_temperature;BME280_humidity;BME280_pressure;Samples;Min_cycle;Max_cycle;Signal;HPM_P1;HPM_P2
2022/05/24 00:00:25;;;;;;;19.48;10.82;;;12.70;99.90;;;;;;5018374;28;20045;-84
2022/05/24 00:02:52;;;;;;;21.95;12.75;;;12.70;99.90;;;;;;5031083;28;20055;-84
2022/05/24 00:05:20;;;;;;;23.00;10.35;;;12.60;99.90;;;;;;5046895;28;20183;-83
2022/05/24 00:07:46;;;;;;;21.63;13.77;;;12.60;99.90;;;;;;5018626;28;20037;-83
2022/05/24 00:10:16;;;;;;;18.95;12.23;;;12.50;99.90;;;;;;5016311;28;20124;-84
2022/05/24 00:12:42;;;;;;;25.27;13.00;;;12.50;99.90;;;;;;5020459;28;20124;-84
2022/05/24 00:15:28;;;;;;;23.77;13.88;;;12.60;99.90;;;;;;5030855;28;20060;-84
2022/05/24 00:18:16;;;;;;;20.15;12.32;;;12.60;99.90;;;;;;5018442;28;20126;-84
2022/05/24 00:20:45;;;;;;;27.70;13.93;;;12.60;99.90;;;;;;5014058;28;20057;-84
2022/05/24 00:23:11;;;;;;;22.45;12.18;;;12.60;99.90;;;;;;5023015;28;20048;-83
2022/05/24 00:25:41;;;;;;;18.00;11.77;;;12.60;99.90;;;;;;5046991;28;20068;-84
2022/05/24 00:28:08;;;;;;;20.38;12.57;;;12.60;99.90;;;;;;5030727;28;20042;-84
2022/05/24 00:30:34;;;;;;;16.75;12.02;;;12.50;99.90;;;;;;5003251;28;20060;-83
2022/05/24 00:33:02;;;;;;;24.48;13.68;;;12.50;99.90;;;;;;5018579;28;20430;-84
2022/05/24 00:35:28;;;;;;;22.10;13.82;;;12.60;99.90;;;;;;4997977;28;20044;-84
2022/05/24 00:37:54;;;;;;;23.55;14.00;;;12.50;99.90;;;;;;5030090;28;20128;-84
2022/05/24 00:40:45;;;;;;;19.77;13.98;;;12.50;99.90;;;;;;5002981;28;20180;-83
2022/05/24 00:43:29;;;;;;;16.40;13.30;;;12.50;99.90;;;;;;5027752;28;20474;-84
2022/05/24 00:46:08;;;;;;;20.83;13.65;;;12.50;99.90;;;;;;5014863;28;20053;-83
2022/05/24 00:48:39;;;;;;;23.48;15.43;;;12.40;99.90;;;;;;5023008;28;20144;-83
2022/05/24 00:51:10;;;;;;;27.77;15.35;;;12.40;99.90;;;;;;5014783;28;20045;-83
2022/05/24 00:53:51;;;;;;;20.23;13.73;;;12.30;99.90;;;;;;5028451;28;20041;-83
2022/05/24 00:56:37;;;;;;;25.63;14.90;;;12.30;99.90;;;;;;5020476;28;20057;-83
2022/05/24 00:59:06;;;;;;;20.25;14.23;;;12.30;99.90;;;;;;5007709;28;20053;-84
2022/05/24 01:01:43;;;;;;;22.77;14.48;;;12.20;99.90;;;;;;5043677;28;20509;-83
2022/05/24 01:04:12;;;;;;;21.75;13.55;;;12.10;99.90;;;;;;5034147;28;20053;-84
2022/05/24 01:06:38;;;;;;;25.30;14.82;;;12.00;99.90;;;;;;5025147;28;20041;-82
2022/05/24 01:09:08;;;;;;;24.85;14.95;;;12.00;99.90;;;;;;5032305;28;20445;-82
2022/05/24 01:11:41;;;;;;;19.17;13.30;;;12.00;99.90;;;;;;5028591;28;20423;-83
2022/05/24 01:14:08;;;;;;;18.23;11.95;;;12.00;99.90;;;;;;5062187;28;20060;-84
2022/05/24 01:16:34;;;;;;;26.23;14.70;;;12.00;99.90;;;;;;5011827;28;20057;-84
2022/05/24 01:19:04;;;;;;;20.92;12.35;;;12.10;99.90;;;;;;4994608;28;20061;-83
2022/05/24 01:21:31;;;;;;;19.42;11.52;;;12.10;99.90;;;;;;5005976;28;20116;-84
2022/05/24 01:24:15;;;;;;;20.10;11.77;;;12.10;99.90;;;;;;5025432;28;20053;-83
2022/05/24 01:26:55;;;;;;;18.95;11.85;;;12.10;99.90;;;;;;5033437;28;20107;-83
2022/05/24 01:29:24;;;;;;;18.73;11.07;;;12.00;99.90;;;;;;5022918;28;20089;-84
2022/05/24 01:37:21;;;;;;;15.57;10.73;;;11.90;99.90;;;;;;5029187;28;20111;-82
2022/05/24 01:39:51;;;;;;;18.52;12.38;;;11.80;99.90;;;;;;5004862;28;20065;-84
2022/05/24 01:42:17;;;;;;;16.27;11.07;;;11.80;99.90;;;;;;5028970;28;20060;-83
2022/05/24 01:45:03;;;;;;;18.75;12.48;;;11.90;99.90;;;;;;5033543;28;20049;-83
2022/05/24 01:47:31;;;;;;;21.87;12.30;;;11.90;99.90;;;;;;5016332;28;20053;-83
2022/05/24 01:50:02;;;;;;;17.27;11.80;;;11.70;99.90;;;;;;5017693;28;20311;-83
2022/05/24 01:52:43;;;;;;;20.85;11.70;;;11.70;99.90;;;;;;5022817;28;20049;-83
2022/05/24 01:55:14;;;;;;;21.10;13.07;;;11.60;99.90;;;;;;5015367;28;20068;-83
2022/05/24 01:57:46;;;;;;;21.65;13.35;;;11.50;99.90;;;;;;5026185;28;20065;-83
2022/05/24 02:00:14;;;;;;;24.58;13.60;;;11.50;99.90;;;;;;5030555;28;20045;-84
2022/05/24 02:02:41;;;;;;;24.45;13.80;;;11.50;99.90;;;;;;5045160;28;20041;-83
2022/05/24 02:05:08;;;;;;;21.33;13.45;;;11.40;99.90;;;;;;5019999;28;20049;-83
2022/05/24 02:07:33;;;;;;;22.88;13.38;;;11.40;99.90;;;;;;5031939;28;20045;-83
2022/05/24 02:10:00;;;;;;;26.85;15.80;;;11.50;99.90;;;;;;4999277;28;20049;-82
2022/05/24 02:12:47;;;;;;;28.27;16.38;;;11.50;99.90;;;;;;5029135;28;20046;-83
2022/05/24 02:15:17;;;;;;;27.70;16.73;;;11.60;99.90;;;;;;5014255;28;20050;-83
2022/05/24 02:18:05;;;;;;;34.80;19.40;;;11.70;99.90;;;;;;5032036;28;20505;-84
2022/05/24 02:20:33;;;;;;;38.33;19.63;;;11.80;99.90;;;;;;5029535;28;20077;-82
2022/05/24 02:23:00;;;;;;;31.05;19.13;;;11.90;99.90;;;;;;5018721;28;20042;-83
2022/05/24 02:25:39;;;;;;;42.45;22.55;;;12.00;99.90;;;;;;5021443;28;20486;-83
2022/05/24 02:28:08;;;;;;;38.97;22.05;;;12.00;99.90;;;;;;5009546;28;20499;-82
2022/05/24 02:30:37;;;;;;;39.05;22.35;;;12.10;99.90;;;;;;5009188;28;20049;-84
2022/05/24 02:33:03;;;;;;;37.35;23.73;;;12.10;99.90;;;;;;5033484;28;20084;-83
2022/05/24 02:35:29;;;;;;;42.53;24.65;;;12.10;99.90;;;;;;5029492;28;20049;-84
2022/05/24 02:37:54;;;;;;;43.97;25.17;;;12.10;99.90;;;;;;4995780;28;20046;-84
2022/05/24 02:43:05;;;;;;;55.47;29.23;;;12.10;99.90;;;;;;5022899;28;20045;-84
2022/05/24 02:45:31;;;;;;;59.70;28.00;;;12.20;99.90;;;;;;5010058;28;20059;-84
2022/05/24 02:47:57;;;;;;;45.92;25.80;;;12.20;99.90;;;;;;5045441;28;20099;-84
2022/05/24 02:50:24;;;;;;;64.53;30.05;;;12.30;99.90;;;;;;5046081;28;20048;-84
2022/05/24 02:52:50;;;;;;;58.50;27.67;;;12.30;99.90;;;;;;5048304;28;20584;-83
2022/05/24 02:55:16;;;;;;;49.78;27.35;;;12.40;99.90;;;;;;5031076;28;20065;-83
2022/05/24 02:57:42;;;;;;;53.55;28.55;;;12.40;99.90;;;;;;5028615;28;20046;-85
2022/05/24 03:00:12;;;;;;;56.88;29.15;;;12.40;99.90;;;;;;5025021;28;20103;-84
2022/05/24 03:02:39;;;;;;;56.70;30.35;;;12.50;99.90;;;;;;5028713;28;20042;-84
2022/05/24 03:05:07;;;;;;;68.25;30.20;;;12.50;99.90;;;;;;5015155;28;20612;-83
2022/05/24 03:10:18;;;;;;;77.82;34.03;;;12.60;99.90;;;;;;5029263;28;20107;-83
2022/05/24 03:15:28;;;;;;;98.63;37.72;;;12.60;99.90;;;;;;5018550;28;20115;-84
2022/05/24 03:17:54;;;;;;;73.35;33.63;;;12.60;99.90;;;;;;4979028;28;20058;-83
2022/05/24 03:20:20;;;;;;;82.55;37.95;;;12.60;99.90;;;;;;5011940;28;20129;-84
2022/05/24 03:22:46;;;;;;;106.93;41.63;;;12.70;99.90;;;;;;5012724;28;20125;-84
2022/05/24 03:25:13;;;;;;;93.20;41.10;;;12.70;99.90;;;;;;5045055;28;20055;-83
2022/05/24 03:27:39;;;;;;;89.63;40.47;;;12.70;99.90;;;;;;5014771;28;20514;-83
2022/05/24 03:30:06;;;;;;;90.72;40.47;;;12.70;99.90;;;;;;5047849;28;20045;-84
2022/05/24 03:32:33;;;;;;;88.20;40.75;;;12.70;99.90;;;;;;5019936;28;20057;-83
2022/05/24 03:35:02;;;;;;;94.97;40.40;;;12.70;99.90;;;;;;5001655;28;20057;-83
2022/05/24 03:37:28;;;;;;;89.50;41.13;;;12.80;99.90;;;;;;5025441;28;20053;-83
2022/05/24 03:39:54;;;;;;;100.50;44.95;;;12.80;99.90;;;;;;4979715;28;20053;-83
2022/05/24 03:42:19;;;;;;;93.60;43.35;;;13.00;99.90;;;;;;5032325;28;20045;-83
2022/05/24 03:44:45;;;;;;;87.55;40.55;;;12.90;99.90;;;;;;5033399;28;20069;-84
2022/05/24 03:47:11;;;;;;;91.70;41.28;;;12.90;99.90;;;;;;5000555;28;20107;-84
2022/05/24 03:49:36;;;;;;;93.65;41.42;;;12.90;99.90;;;;;;5021287;28;20045;-84
2022/05/24 03:52:02;;;;;;;93.07;43.55;;;12.90;99.90;;;;;;5025174;28;20072;-83
2022/05/24 03:54:28;;;;;;;83.22;42.05;;;13.00;99.90;;;;;;4999518;28;20521;-83
2022/05/24 03:59:38;;;;;;;71.05;37.35;;;13.00;99.90;;;;;;5031445;28;20085;-83
2022/05/24 04:02:04;;;;;;;77.75;39.65;;;13.00;99.90;;;;;;5030383;28;20148;-84
2022/05/24 04:04:30;;;;;;;75.65;38.72;;;13.00;99.90;;;;;;5016432;28;20045;-83
2022/05/24 04:06:56;;;;;;;70.97;39.35;;;13.00;99.90;;;;;;5030637;28;20068;-83
2022/05/24 04:09:21;;;;;;;74.15;40.22;;;13.00;99.90;;;;;;5038642;28;20049;-83
2022/05/24 04:11:47;;;;;;;79.28;39.95;;;13.00;99.90;;;;;;5032120;28;20041;-84
2022/05/24 04:14:13;;;;;;;72.13;38.13;;;13.00;99.90;;;;;;5041390;28;20056;-81
2022/05/24 04:16:39;;;;;;;74.03;37.75;;;13.10;99.90;;;;;;5014417;28;20107;-83
2022/05/24 04:19:05;;;;;;;73.82;37.67;;;13.10;99.90;;;;;;5046186;28;20064;-84
2022/05/24 04:21:31;;;;;;;62.83;36.33;;;13.10;99.90;;;;;;5017923;28;20080;-83
2022/05/24 04:23:57;;;;;;;60.28;35.88;;;13.10;99.90;;;;;;5046072;28;20417;-85
2022/05/24 04:26:23;;;;;;;77.53;38.33;;;13.20;99.90;;;;;;5015840;28;20457;-85
2022/05/24 04:28:49;;;;;;;64.88;35.80;;;13.20;99.90;;;;;;5031891;28;20072;-86
2022/05/24 04:31:14;;;;;;;60.03;35.00;;;13.10;99.90;;;;;;5013193;28;20165;-87
2022/05/24 04:33:41;;;;;;;57.13;36.15;;;13.10;99.90;;;;;;5037191;28;20245;-85
2022/05/24 04:36:07;;;;;;;61.30;35.08;;;13.30;99.90;;;;;;5009219;28;20057;-84
2022/05/24 04:38:33;;;;;;;70.32;35.95;;;13.10;99.90;;;;;;5030403;28;20057;-85
2022/05/24 04:43:43;;;;;;;61.75;33.63;;;13.20;99.90;;;;;;5016743;28;20045;-84
2022/05/24 04:46:08;;;;;;;56.72;33.53;;;13.20;99.90;;;;;;5032355;28;20099;-84
2022/05/24 04:48:34;;;;;;;58.35;34.65;;;13.20;99.90;;;;;;5036955;28;20045;-83
2022/05/24 04:51:00;;;;;;;64.38;35.13;;;13.20;99.90;;;;;;4999953;28;20041;-85
2022/05/24 04:53:27;;;;;;;55.03;32.20;;;13.20;99.90;;;;;;5016801;28;20160;-85
2022/05/24 04:55:53;;;;;;;57.88;32.72;;;13.30;99.90;;;;;;5046728;28;20517;-86
2022/05/24 04:58:19;;;;;;;62.83;33.30;;;13.30;99.90;;;;;;5017451;28;20088;-84
2022/05/24 05:00:47;;;;;;;52.55;30.63;;;13.40;99.90;;;;;;5031010;28;20487;-85
2022/05/24 05:03:17;;;;;;;53.33;31.35;;;13.40;99.90;;;;;;4973824;28;20045;-85
2022/05/24 05:05:44;;;;;;;52.67;31.15;;;13.40;99.90;;;;;;5005665;28;20053;-85
2022/05/24 05:08:10;;;;;;;57.83;31.90;;;13.40;99.90;;;;;;5027864;28;21846;-84
2022/05/24 05:10:37;;;;;;;53.55;31.02;;;13.40;99.90;;;;;;5012730;28;20616;-85
2022/05/24 05:13:06;;;;;;;48.70;30.40;;;13.40;99.90;;;;;;4984709;28;20053;-84
2022/05/24 05:15:34;;;;;;;54.85;31.33;;;13.50;99.90;;;;;;5016329;28;20076;-85
2022/05/24 05:18:04;;;;;;;56.78;34.13;;;13.50;99.90;;;;;;5016401;28;20038;-85
2022/05/24 05:20:31;;;;;;;56.97;33.30;;;13.50;99.90;;;;;;5015588;28;20049;-82
2022/05/24 05:22:56;;;;;;;54.45;31.67;;;13.40;99.90;;;;;;4994776;28;21848;-82
2022/05/24 05:25:22;;;;;;;47.83;31.85;;;13.50;99.90;;;;;;4996972;28;20055;-83
2022/05/24 05:27:48;;;;;;;57.97;32.45;;;13.50;99.90;;;;;;5013007;28;20049;-83
2022/05/24 05:32:58;;;;;;;48.10;29.00;;;13.50;99.90;;;;;;5013801;28;20045;-82
2022/05/24 05:35:24;;;;;;;48.45;30.45;;;13.50;99.90;;;;;;5016919;28;20048;-82
2022/05/24 05:37:50;;;;;;;43.70;29.08;;;13.50;99.90;;;;;;5050821;28;20045;-82
2022/05/24 05:40:16;;;;;;;49.17;30.65;;;13.40;99.90;;;;;;5022573;28;20046;-84
2022/05/24 05:42:42;;;;;;;45.63;29.85;;;13.30;99.90;;;;;;5032533;28;20041;-82
2022/05/24 05:45:11;;;;;;;50.85;30.52;;;13.30;99.90;;;;;;5019914;28;20529;-82
2022/05/24 05:47:37;;;;;;;48.85;30.88;;;13.30;99.90;;;;;;5030884;28;20049;-82
2022/05/24 05:50:04;;;;;;;51.90;29.45;;;13.40;99.90;;;;;;4997429;28;20053;-83
2022/05/24 05:52:30;;;;;;;46.78;28.40;;;13.40;99.90;;;;;;5046992;28;20049;-83
2022/05/24 05:54:55;;;;;;;44.78;27.75;;;13.40;99.90;;;;;;5046863;28;20529;-82
2022/05/24 05:57:21;;;;;;;45.28;27.33;;;13.40;99.90;;;;;;4997527;28;20050;-82
2022/05/24 05:59:47;;;;;;;41.83;23.98;;;13.40;99.90;;;;;;5060636;28;20069;-82
2022/05/24 06:02:13;;;;;;;44.15;25.25;;;13.40;99.90;;;;;;5026656;28;20042;-82
2022/05/24 06:04:39;;;;;;;35.83;23.38;;;13.40;99.90;;;;;;5043762;28;20507;-82
2022/05/24 06:07:05;;;;;;;35.88;22.48;;;13.40;99.90;;;;;;5013286;28;20054;-82
2022/05/24 06:09:31;;;;;;;33.47;22.38;;;13.50;99.90;;;;;;5030132;28;20049;-83
2022/05/24 06:11:57;;;;;;;29.30;22.00;;;13.50;99.90;;;;;;5030088;28;20060;-82
2022/05/24 06:14:22;;;;;;;37.28;22.02;;;13.70;99.90;;;;;;5013601;28;20102;-82
2022/05/24 06:16:48;;;;;;;37.25;21.80;;;13.80;99.90;;;;;;5030277;28;20409;-82
2022/05/24 06:19:14;;;;;;;31.23;18.60;;;13.80;99.90;;;;;;5013380;28;20727;-82
2022/05/24 06:21:39;;;;;;;32.22;21.02;;;13.80;99.90;;;;;;5013594;28;20119;-83
2022/05/24 06:24:06;;;;;;;33.83;21.45;;;13.80;99.90;;;;;;4997444;28;20478;-82
2022/05/24 06:26:33;;;;;;;30.27;19.15;;;13.80;99.90;;;;;;5046497;28;20064;-83
2022/05/24 06:28:59;;;;;;;33.20;20.38;;;13.90;99.90;;;;;;5030036;28;20045;-82
2022/05/24 06:31:26;;;;;;;32.80;19.55;;;13.80;99.90;;;;;;5013236;28;20038;-82
2022/05/24 06:33:51;;;;;;;30.60;20.75;;;13.90;99.90;;;;;;5013664;28;20756;-82
2022/05/24 06:36:17;;;;;;;28.50;20.00;;;13.90;99.90;;;;;;5046071;28;20053;-82
2022/05/24 06:38:43;;;;;;;31.42;19.65;;;14.00;99.90;;;;;;5013557;28;20045;-83
2022/05/24 06:41:09;;;;;;;35.53;21.27;;;14.10;99.90;;;;;;5013376;28;20533;-84
2022/05/24 06:43:36;;;;;;;32.63;20.38;;;14.10;99.90;;;;;;5013009;28;20445;-83
2022/05/24 06:46:09;;;;;;;27.80;19.50;;;14.00;99.90;;;;;;5013077;28;20798;-82
2022/05/24 06:48:37;;;;;;;26.30;18.80;;;14.00;99.90;;;;;;5029406;28;20057;-82
2022/05/24 06:51:19;;;;;;;28.77;17.45;;;14.00;99.90;;;;;;5013320;28;20383;-82
2022/05/24 06:53:46;;;;;;;28.67;18.08;;;13.90;99.90;;;;;;5029760;28;20056;-82
2022/05/24 06:56:13;;;;;;;32.17;18.63;;;13.90;99.90;;;;;;5045868;28;20112;-84
2022/05/24 06:58:39;;;;;;;28.35;17.88;;;13.90;99.90;;;;;;5029795;28;20474;-83
2022/05/24 07:03:52;;;;;;;25.67;16.73;;;14.20;99.90;;;;;;5029761;28;20053;-82
2022/05/24 07:06:18;;;;;;;27.13;16.45;;;14.30;99.90;;;;;;5012759;28;20136;-83
2022/05/24 07:08:45;;;;;;;24.40;16.77;;;14.30;99.90;;;;;;5025953;28;20064;-83
2022/05/24 07:11:13;;;;;;;24.77;17.27;;;14.30;99.90;;;;;;5029424;28;20474;-83
2022/05/24 07:13:39;;;;;;;29.30;17.40;;;14.20;99.90;;;;;;5029112;28;20038;-82
2022/05/24 07:16:07;;;;;;;28.02;17.42;;;14.20;99.90;;;;;;5046171;28;20479;-83
2022/05/24 07:18:34;;;;;;;24.73;16.42;;;14.20;99.90;;;;;;5028997;28;20060;-82
2022/05/24 07:20:59;;;;;;;22.40;16.25;;;14.20;99.90;;;;;;5012879;28;20049;-83
2022/05/24 07:23:26;;;;;;;25.77;16.77;;;14.10;99.90;;;;;;5012571;28;20498;-82
2022/05/24 07:25:53;;;;;;;23.83;16.30;;;14.10;99.90;;;;;;5029188;28;20053;-82
2022/05/24 07:28:19;;;;;;;24.00;16.75;;;14.00;99.90;;;;;;5012470;28;20045;-82
2022/05/24 07:30:47;;;;;;;24.52;17.02;;;14.00;99.90;;;;;;5029260;28;20060;-82
2022/05/24 07:33:13;;;;;;;27.70;15.35;;;14.00;99.90;;;;;;5013003;28;20106;-82
2022/05/24 07:35:43;;;;;;;25.13;15.85;;;14.10;99.90;;;;;;5012506;28;20456;-82
2022/05/24 07:38:10;;;;;;;21.75;15.75;;;14.00;99.90;;;;;;5029471;28;20056;-82
2022/05/24 07:46:12;;;;;;;19.50;13.15;;;13.80;99.90;;;;;;5029386;28;20466;-82
2022/05/24 07:48:39;;;;;;;25.77;14.73;;;13.80;99.90;;;;;;5028820;28;20102;-83
2022/05/24 07:51:05;;;;;;;19.88;15.10;;;13.80;99.90;;;;;;5029275;28;20057;-83
2022/05/24 07:53:32;;;;;;;24.75;14.85;;;13.90;99.90;;;;;;5012253;28;20058;-82
2022/05/24 07:55:58;;;;;;;25.20;15.07;;;14.10;99.90;;;;;;5012398;28;20087;-82
2022/05/24 07:58:25;;;;;;;22.20;14.07;;;14.20;99.90;;;;;;5012245;28;20064;-83
2022/05/24 08:00:54;;;;;;;27.00;15.00;;;14.20;99.90;;;;;;5029122;28;20125;-82
2022/05/24 08:03:20;;;;;;;26.58;15.77;;;14.30;99.90;;;;;;5012448;28;20060;-85
2022/05/24 08:05:46;;;;;;;19.70;13.60;;;14.30;99.90;;;;;;5029167;28;20053;-82
2022/05/24 08:08:11;;;;;;;20.60;13.90;;;14.40;99.90;;;;;;5016357;28;20477;-82
2022/05/24 08:10:38;;;;;;;19.60;14.02;;;14.60;99.90;;;;;;5015835;28;20049;-82
2022/05/24 08:13:09;;;;;;;17.02;13.10;;;14.60;99.90;;;;;;5032671;28;20057;-83
2022/05/24 08:15:36;;;;;;;18.95;13.63;;;14.80;99.90;;;;;;5015549;28;20054;-83
2022/05/24 08:18:02;;;;;;;20.05;13.02;;;14.80;99.90;;;;;;5015258;28;20049;-82
2022/05/24 08:20:29;;;;;;;17.63;12.65;;;14.90;99.90;;;;;;5031873;28;20033;-83
2022/05/24 08:22:57;;;;;;;22.10;14.10;;;15.30;99.90;;;;;;5014863;28;20046;-83
2022/05/24 08:25:24;;;;;;;17.88;13.15;;;15.50;99.90;;;;;;5032237;28;20455;-84
2022/05/24 08:27:51;;;;;;;16.48;12.93;;;16.10;99.90;;;;;;5015993;28;20140;-83
2022/05/24 08:30:17;;;;;;;18.80;13.48;;;16.10;99.90;;;;;;5016049;28;20462;-82
2022/05/24 08:32:44;;;;;;;21.00;13.18;;;15.80;99.90;;;;;;5015433;28;20063;-83
2022/05/24 08:35:12;;;;;;;16.05;11.95;;;16.00;99.90;;;;;;5015965;28;20046;-83
2022/05/24 08:37:40;;;;;;;18.13;11.82;;;16.80;99.90;;;;;;5031672;28;20049;-82
2022/05/24 08:40:06;;;;;;;14.48;10.27;;;17.50;99.90;;;;;;5032108;28;20088;-82
2022/05/24 08:42:59;;;;;;;18.48;11.75;;;17.80;99.90;;;;;;5031501;28;20050;-84
2022/05/24 08:48:27;;;;;;;12.10;9.50;;;18.20;99.90;;;;;;5032105;28;20057;-83
2022/05/24 08:51:01;;;;;;;15.35;9.50;;;17.80;99.90;;;;;;5015499;28;20046;-82
2022/05/24 08:53:42;;;;;;;12.40;9.30;;;17.40;99.90;;;;;;5031375;28;20132;-86
2022/05/24 08:56:12;;;;;;;12.15;7.70;;;17.40;99.90;;;;;;5031436;28;20104;-82
2022/05/24 08:58:45;;;;;;;11.10;8.32;;;18.10;99.90;;;;;;5014933;28;20407;-83
2022/05/24 09:01:24;;;;;;;12.63;7.57;;;18.70;99.90;;;;;;5015268;28;20099;-82
2022/05/24 09:03:50;;;;;;;10.20;6.50;;;18.40;99.90;;;;;;5014880;28;20046;-82
2022/05/24 09:06:46;;;;;;;9.70;6.22;;;17.50;99.90;;;;;;4999063;28;20510;-83
2022/05/24 09:09:18;;;;;;;7.27;4.97;;;16.90;99.90;;;;;;4995640;28;20525;-82
2022/05/24 09:11:54;;;;;;;8.88;5.13;;;17.40;99.90;;;;;;4995021;28;20053;-82
2022/05/24 09:14:36;;;;;;;8.10;4.55;;;17.90;99.90;;;;;;5011888;28;20064;-83
2022/05/24 09:17:20;;;;;;;6.95;4.68;;;17.30;99.90;;;;;;5011618;28;20053;-83
2022/05/24 09:19:46;;;;;;;6.25;4.95;;;16.60;99.90;;;;;;4994930;28;20380;-83
2022/05/24 09:22:14;;;;;;;10.88;4.60;;;16.70;99.90;;;;;;4978793;28;20096;-83
2022/05/24 09:24:44;;;;;;;7.30;4.93;;;17.30;99.90;;;;;;4994552;28;20666;-83
2022/05/24 09:27:18;;;;;;;7.32;4.65;;;17.80;99.90;;;;;;4995233;28;20065;-82
2022/05/24 09:29:53;;;;;;;6.72;3.60;;;18.40;99.90;;;;;;4994676;28;20056;-83
2022/05/24 09:32:21;;;;;;;7.73;3.87;;;19.00;99.90;;;;;;4994972;28;20104;-83
2022/05/24 09:34:59;;;;;;;5.05;3.30;;;19.60;99.90;;;;;;4994495;28;20388;-82
2022/05/24 09:37:27;;;;;;;9.02;4.25;;;20.60;99.90;;;;;;4995075;28;20561;-84
2022/05/24 09:40:03;;;;;;;4.93;3.80;;;21.40;99.90;;;;;;5010837;28;20559;-83
2022/05/24 09:42:30;;;;;;;;;;;21.00;99.90;;;;;;5011427;28;20042;-83
2022/05/24 09:45:06;;;;;;;5.93;4.13;;;20.00;99.90;;;;;;5010942;28;19921;-82
2022/05/24 09:47:51;;;;;;;9.40;5.00;;;19.10;99.90;;;;;;5010780;28;20499;-86
2022/05/24 09:50:23;;;;;;;6.35;4.30;;;18.00;99.90;;;;;;4994983;28;20571;-82
2022/05/24 09:53:12;;;;;;;7.15;3.30;;;16.60;99.90;;;;;;4994108;28;20050;-83
2022/05/24 09:55:52;;;;;;;8.48;3.97;;;15.60;99.90;;;;;;4993614;28;20054;-83
2022/05/24 09:58:26;;;;;;;8.63;4.18;;;15.00;99.90;;;;;;4994729;28;20049;-83
2022/05/24 10:00:57;;;;;;;7.45;4.40;;;14.70;99.90;;;;;;5005809;28;20076;-83
2022/05/24 10:03:36;;;;;;;5.60;4.07;;;14.70;99.90;;;;;;5013995;28;20053;-82
2022/05/24 10:06:08;;;;;;;6.43;3.53;;;15.10;99.90;;;;;;5014244;28;20510;-83
2022/05/24 10:08:55;;;;;;;6.68;3.33;;;15.60;99.90;;;;;;5013892;28;20049;-84
2022/05/24 10:11:33;;;;;;;8.35;3.60;;;15.80;99.90;;;;;;5030385;28;20053;-82
2022/05/24 10:14:12;;;;;;;6.05;3.80;;;16.20;99.90;;;;;;5030070;28;20049;-83
2022/05/24 10:16:50;;;;;;;7.82;4.15;;;16.10;99.90;;;;;;5029545;28;20555;-83
2022/05/24 10:19:35;;;;;;;8.30;4.80;;;15.80;99.90;;;;;;5047147;28;20052;-82
2022/05/24 10:22:07;;;;;;;9.18;4.97;;;15.40;99.90;;;;;;5013521;28;20049;-82
2022/05/24 10:24:39;;;;;;;7.20;5.03;;;14.90;99.90;;;;;;5027935;28;20083;-83
2022/05/24 10:27:13;;;;;;;9.18;6.25;;;14.60;99.90;;;;;;5013540;28;20684;-82
2022/05/24 10:30:00;;;;;;;7.40;5.38;;;14.60;99.90;;;;;;5012740;28;20053;-82
2022/05/24 10:38:56;;;;;;;5.53;1.98;;;16.40;99.90;;;;;;5030101;28;20049;-82
2022/05/24 10:41:31;;;;;;;3.47;1.10;;;15.00;99.90;;;;;;5029983;28;20050;-84
2022/05/24 10:44:07;;;;;;;2.50;0.63;;;13.90;99.90;;;;;;5013107;28;20102;-83
2022/05/24 10:46:43;;;;;;;4.57;1.10;;;13.00;99.90;;;;;;5013552;28;20445;-82
2022/05/24 10:49:27;;;;;;;;;;;12.30;99.90;;;;;;5014039;28;20053;-82
2022/05/24 10:52:05;;;;;;;2.97;0.82;;;11.90;99.90;;;;;;5045956;28;19924;-82
2022/05/24 10:55:00;;;;;;;2.53;1.10;;;11.70;99.90;;;;;;5029402;28;20049;-82
2022/05/24 10:57:53;;;;;;;2.20;0.90;;;11.90;99.90;;;;;;5029748;28;20131;-82
2022/05/24 11:00:23;;;;;;;2.75;0.80;;;12.10;99.90;;;;;;5007634;28;20061;-82
2022/05/24 11:03:09;;;;;;;2.72;0.90;;;12.20;99.90;;;;;;5028866;28;20046;-82
2022/05/24 11:05:57;;;;;;;5.45;1.40;;;12.40;99.90;;;;;;5029712;28;20049;-82
2022/05/24 11:08:37;;;;;;;3.63;1.50;;;12.40;99.90;;;;;;5029529;28;20136;-82
2022/05/24 11:11:28;;;;;;;7.07;1.88;;;12.50;99.90;;;;;;5012667;28;20120;-83
2022/05/24 11:14:12;;;;;;;3.63;1.85;;;12.80;99.90;;;;;;5029105;28;20060;-82
2022/05/24 11:16:50;;;;;;;2.25;1.90;;;13.00;99.90;;;;;;5029553;28;20049;-82
2022/05/24 11:19:31;;;;;;;3.45;2.05;;;13.00;99.90;;;;;;5029616;28;20056;-82
2022/05/24 11:22:15;;;;;;;4.90;2.50;;;12.90;99.90;;;;;;5028887;28;20053;-82
2022/05/24 11:24:53;;;;;;;4.20;2.90;;;12.90;99.90;;;;;;5029502;28;20041;-82
2022/05/24 11:27:51;;;;;;;4.10;3.42;;;13.80;99.90;;;;;;5029568;28;20045;-82
2022/05/24 11:30:33;;;;;;;6.65;3.88;;;14.60;99.90;;;;;;5013152;28;20049;-82
2022/05/24 11:33:05;;;;;;;3.42;3.00;;;15.30;99.90;;;;;;5012583;28;20085;-82
2022/05/24 11:35:50;;;;;;;5.07;3.42;;;15.30;99.90;;;;;;5029325;28;20128;-82
2022/05/24 11:38:36;;;;;;;4.63;3.22;;;15.50;99.90;;;;;;5029428;28;20049;-83
2022/05/24 11:41:14;;;;;;;3.38;2.50;;;15.50;99.90;;;;;;5029238;28;20049;-83
2022/05/24 11:43:43;;;;;;;3.85;2.70;;;14.80;99.90;;;;;;5033243;28;20142;-82
2022/05/24 11:46:29;;;;;;;4.82;2.63;;;14.30;99.90;;;;;;5016271;28;20053;-83
2022/05/24 11:48:56;;;;;;;5.90;2.40;;;14.00;99.90;;;;;;5015949;28;20095;-82
2022/05/24 11:51:46;;;;;;;4.43;2.47;;;13.80;99.90;;;;;;5032905;28;20093;-84
2022/05/24 11:54:18;;;;;;;3.15;2.35;;;13.60;99.90;;;;;;5032786;28;20057;-82
2022/05/24 11:57:07;;;;;;;5.10;2.35;;;13.60;99.90;;;;;;5032478;28;20053;-83
2022/05/24 11:59:48;;;;;;;3.38;2.00;;;14.10;99.90;;;;;;5015805;28;20111;-82
2022/05/24 12:02:26;;;;;;;4.13;1.88;;;14.40;99.90;;;;;;5016031;28;20045;-82
2022/05/24 12:07:57;;;;;;;3.88;1.95;;;14.10;99.90;;;;;;5032591;28;20099;-82
2022/05/24 12:10:25;;;;;;;4.88;2.03;;;13.90;99.90;;;;;;5032815;28;20147;-83
2022/05/24 12:13:14;;;;;;;4.93;2.17;;;13.80;99.90;;;;;;5015457;28;20682;-83
2022/05/24 12:15:40;;;;;;;2.20;2.00;;;13.90;99.90;;;;;;5032256;28;20568;-83
2022/05/24 12:18:06;;;;;;;3.90;2.10;;;14.50;99.90;;;;;;5015553;28;20474;-82
2022/05/24 12:20:34;;;;;;;3.55;1.80;;;14.60;99.90;;;;;;5032233;28;20049;-83
2022/05/24 12:23:06;;;;;;;3.22;2.00;;;14.90;99.90;;;;;;5031481;28;20132;-83
2022/05/24 12:25:52;;;;;;;2.55;1.60;;;15.10;99.90;;;;;;5032367;28;20053;-82
2022/05/24 12:28:33;;;;;;;3.85;1.50;;;16.10;99.90;;;;;;5032281;28;20049;-82
2022/05/24 12:31:00;;;;;;;2.63;1.55;;;16.80;99.90;;;;;;5015208;28;20136;-83
2022/05/24 12:33:33;;;;;;;5.03;1.60;;;16.40;99.90;;;;;;5015709;28;20120;-84
2022/05/24 12:36:17;;;;;;;3.75;1.60;;;15.70;99.90;;;;;;5015131;28;20092;-82
2022/05/24 12:38:49;;;;;;;8.27;2.05;;;15.10;99.90;;;;;;5048878;28;20367;-82
2022/05/24 12:41:25;;;;;;;3.75;1.15;;;14.50;99.90;;;;;;5015231;28;20062;-82
2022/05/24 12:43:58;;;;;;;3.90;1.33;;;14.30;99.90;;;;;;5031627;28;20084;-82
2022/05/24 12:46:29;;;;;;;5.40;1.15;;;14.00;99.90;;;;;;5015617;28;20045;-83
2022/05/24 12:49:07;;;;;;;2.67;1.10;;;14.00;99.90;;;;;;5015078;28;20084;-85
2022/05/24 12:51:34;;;;;;;2.60;1.23;;;14.00;99.90;;;;;;5031900;28;20053;-82
2022/05/24 12:54:14;;;;;;;3.28;0.80;;;13.90;99.90;;;;;;5014762;28;20056;-82
2022/05/24 12:56:50;;;;;;;0.88;0.40;;;14.50;99.90;;;;;;5031406;28;20061;-83
2022/05/24 12:59:16;;;;;;;3.28;0.40;;;16.30;99.90;;;;;;5031314;28;20153;-82
2022/05/24 13:01:42;;;;;;;1.70;0.43;;;17.80;99.90;;;;;;5016149;28;20120;-83
2022/05/24 13:04:21;;;;;;;2.65;0.60;;;18.40;99.90;;;;;;5014672;28;20135;-83
2022/05/24 13:06:51;;;;;;;2.53;0.50;;;18.50;99.90;;;;;;5031642;28;20104;-83
2022/05/24 13:09:32;;;;;;;1.48;0.60;;;18.80;99.90;;;;;;5014631;28;20068;-82
2022/05/24 13:12:05;;;;;;;1.73;0.68;;;18.40;99.90;;;;;;5014597;28;20045;-84
2022/05/24 13:14:56;;;;;;;3.42;1.05;;;17.60;99.90;;;;;;5031598;28;20183;-83
2022/05/24 13:17:25;;;;;;;2.95;0.95;;;17.50;99.90;;;;;;5031393;28;20050;-83
2022/05/24 13:19:56;;;;;;;3.28;0.80;;;17.60;99.90;;;;;;5048050;28;20145;-82
2022/05/24 13:22:43;;;;;;;8.27;1.33;;;17.10;99.90;;;;;;5030972;28;20053;-84
2022/05/24 13:25:13;;;;;;;4.05;0.95;;;17.60;99.90;;;;;;5014534;28;20441;-83
2022/05/24 13:27:54;;;;;;;4.45;1.10;;;17.70;99.90;;;;;;5031431;28;20057;-82
2022/05/24 13:33:48;;;;;;;4.53;1.10;;;16.90;99.90;;;;;;5031270;28;20085;-83
2022/05/24 13:36:21;;;;;;;3.38;1.10;;;16.60;99.90;;;;;;5014182;28;20144;-83
2022/05/24 13:39:03;;;;;;;3.50;1.10;;;18.00;99.90;;;;;;5014664;28;20053;-83